createdAt,value
2022-11-05T00:01:16.960Z,12.16
2022-11-05T00:06:36.729Z,12.23
2022-11-05T00:12:00.664Z,12.36
2022-11-05T00:17:01.644Z,12.41
2022-11-05T00:22:21.054Z,12.45
2022-11-05T00:27:22.090Z,12.48
2022-11-05T00:32:23.084Z,12.52
2022-11-05T00:37:27.445Z,12.43
2022-11-05T00:42:47.361Z,12.30
2022-11-05T00:48:07.061Z,12.08
2022-11-05T00:53:08.628Z,11.78
2022-11-05T00:58:15.833Z,11.50
2022-11-05T01:03:19.099Z,11.32
2022-11-05T01:08:22.359Z,11.60
2022-11-05T01:13:26.998Z,11.95
2022-11-05T01:18:28.254Z,11.69
2022-11-05T01:23:29.327Z,11.52
2022-11-05T01:28:30.489Z,11.42
2022-11-05T01:33:31.632Z,11.42
2022-11-05T01:38:32.657Z,11.30
2022-11-05T01:43:53.681Z,11.28
2022-11-05T01:49:03.191Z,11.48
2022-11-05T01:54:10.048Z,11.76
2022-11-05T01:59:17.674Z,11.91
2022-11-05T02:04:39.147Z,12.00
2022-11-05T02:10:03.774Z,12.01
2022-11-05T02:15:05.990Z,12.02
2022-11-05T02:20:28.964Z,11.93
2022-11-05T02:26:07.779Z,11.90
2022-11-05T02:31:20.691Z,11.98
2022-11-05T02:36:45.795Z,12.02
2022-11-05T02:42:05.832Z,11.99
2022-11-05T02:47:25.434Z,11.94
2022-11-05T02:52:42.356Z,11.83
2022-11-05T02:57:45.820Z,11.76
2022-11-05T03:02:46.980Z,11.72
2022-11-05T03:07:57.582Z,11.75
2022-11-05T03:13:44.488Z,11.75
2022-11-05T03:18:53.951Z,11.79
2022-11-05T03:24:08.265Z,11.93
2022-11-05T03:29:16.784Z,11.98
2022-11-05T03:34:21.723Z,11.92
2022-11-05T03:39:29.640Z,11.83
2022-11-05T03:44:35.372Z,11.82
2022-11-05T03:49:46.708Z,11.68
2022-11-05T03:54:47.866Z,11.63
2022-11-05T03:59:50.249Z,11.77
2022-11-05T04:04:51.974Z,11.79
2022-11-05T04:10:11.423Z,11.76
2022-11-05T04:15:13.733Z,11.64
2022-11-05T04:20:33.649Z,11.60
2022-11-05T04:25:34.755Z,11.48
2022-11-05T04:30:36.248Z,11.32
2022-11-05T04:35:45.789Z,11.26
2022-11-05T04:40:47.561Z,11.27
2022-11-05T04:45:48.589Z,11.13
2022-11-05T04:50:49.500Z,11.17
2022-11-05T04:55:50.602Z,11.35
2022-11-05T05:00:52.041Z,11.48
2022-11-05T05:05:54.028Z,11.65
2022-11-05T05:10:55.510Z,11.78
2022-11-05T05:15:56.828Z,11.84
2022-11-05T05:21:17.490Z,11.90
2022-11-05T05:26:18.510Z,11.93
2022-11-05T05:31:20.720Z,12.01
2022-11-05T05:36:22.703Z,12.02
2022-11-05T05:41:24.402Z,12.14
2022-11-05T05:46:25.446Z,12.18
2022-11-05T05:51:26.376Z,12.13
2022-11-05T05:56:27.417Z,12.03
2022-11-05T06:01:28.478Z,12.11
2022-11-05T06:06:29.867Z,12.17
2022-11-05T06:11:30.926Z,12.11
2022-11-05T06:16:35.191Z,12.13
2022-11-05T06:21:36.421Z,12.08
2022-11-05T06:26:42.041Z,12.18
2022-11-05T06:31:43.014Z,12.31
2022-11-05T06:36:44.067Z,12.47
2022-11-05T06:42:12.067Z,12.51
2022-11-05T06:47:06.268Z,12.45
2022-11-05T06:52:07.251Z,12.51
2022-11-05T06:57:12.070Z,12.64
2022-11-05T07:02:13.212Z,12.71
2022-11-05T07:07:14.692Z,12.70
2022-11-05T07:12:15.615Z,12.74
2022-11-05T07:17:17.868Z,12.65
2022-11-05T07:22:18.880Z,12.69
2022-11-05T07:27:19.975Z,12.69
2022-11-05T07:32:20.919Z,12.75
2022-11-05T07:37:21.979Z,12.69
2022-11-05T07:42:22.980Z,12.74
2022-11-05T07:47:24.017Z,12.75
2022-11-05T07:52:25.010Z,12.72
2022-11-05T07:57:26.066Z,12.76
2022-11-05T08:02:27.290Z,12.79
2022-11-05T08:07:28.518Z,12.74
2022-11-05T08:12:30.254Z,12.79
2022-11-05T08:17:31.656Z,12.81
2022-11-05T08:22:32.622Z,12.96
2022-11-05T08:27:33.650Z,13.08
2022-11-05T08:32:35.044Z,13.13
2022-11-05T08:37:36.282Z,13.12
2022-11-05T08:42:37.259Z,13.31
2022-11-05T08:47:38.318Z,13.47
2022-11-05T08:52:39.998Z,13.63
2022-11-05T08:57:41.026Z,13.67
2022-11-05T09:02:42.028Z,13.72
2022-11-05T09:07:43.201Z,13.79
2022-11-05T09:12:44.287Z,13.84
2022-11-05T09:17:45.250Z,13.94
2022-11-05T09:22:46.751Z,14.01
2022-11-05T09:27:47.768Z,14.19
2022-11-05T09:32:48.791Z,14.31
2022-11-05T09:37:49.854Z,14.35
2022-11-05T09:42:53.219Z,14.40
2022-11-05T09:48:03.265Z,14.38
2022-11-05T09:53:04.661Z,14.37
2022-11-05T09:58:18.359Z,14.39
2022-11-05T10:03:22.272Z,14.44
2022-11-05T10:08:31.844Z,14.40
2022-11-05T10:13:41.573Z,14.43
2022-11-05T10:18:47.592Z,14.51
2022-11-05T10:23:48.670Z,14.71
2022-11-05T10:28:51.976Z,14.79
2022-11-05T10:33:58.729Z,14.57
2022-11-05T10:39:08.792Z,14.57
2022-11-05T10:44:25.710Z,14.42
2022-11-05T10:49:44.562Z,14.42
2022-11-05T10:54:46.836Z,14.42
2022-11-05T10:59:48.080Z,14.56
2022-11-05T11:04:52.972Z,14.70
2022-11-05T11:09:54.474Z,14.77
2022-11-05T11:15:03.639Z,14.79
2022-11-05T11:20:20.244Z,14.75
2022-11-05T11:25:24.785Z,14.85
2022-11-05T11:30:26.687Z,15.09
2022-11-05T11:35:28.612Z,15.26
2022-11-05T11:40:33.662Z,15.43
2022-11-05T11:45:45.986Z,15.49
2022-11-05T11:50:48.261Z,15.47
2022-11-05T11:56:11.468Z,15.55
2022-11-05T12:01:54.576Z,15.68
2022-11-05T12:07:17.628Z,15.79
2022-11-05T12:12:28.037Z,15.83
2022-11-05T12:17:45.300Z,15.79
2022-11-05T12:23:08.811Z,15.81
2022-11-05T12:28:13.306Z,15.76
2022-11-05T12:33:41.655Z,15.71
2022-11-05T12:38:52.555Z,15.79
2022-11-05T12:44:27.098Z,15.79
2022-11-05T12:49:46.975Z,15.72
2022-11-05T12:55:01.209Z,15.62
2022-11-05T13:00:05.949Z,15.50
2022-11-05T13:05:18.906Z,15.37
2022-11-05T13:10:31.070Z,15.27
2022-11-05T13:15:38.295Z,15.37
2022-11-05T13:20:45.097Z,15.58
2022-11-05T13:25:52.498Z,15.69
2022-11-05T13:31:00.626Z,15.64
2022-11-05T13:36:34.031Z,15.66
2022-11-05T13:42:01.070Z,15.70
2022-11-05T13:47:40.187Z,15.71
2022-11-05T13:52:58.274Z,15.71
2022-11-05T13:58:37.231Z,15.66
2022-11-05T14:03:45.321Z,15.65
2022-11-05T14:08:46.430Z,15.68
2022-11-05T14:13:53.942Z,15.67
2022-11-05T14:19:17.782Z,15.63
2022-11-05T14:24:24.596Z,15.62
2022-11-05T14:29:44.018Z,15.62
2022-11-05T14:34:45.172Z,15.56
2022-11-05T14:39:47.107Z,15.48
2022-11-05T14:45:13.055Z,15.42
2022-11-05T14:50:38.189Z,15.36
2022-11-05T14:55:42.666Z,15.35
2022-11-05T15:00:46.033Z,15.37
2022-11-05T15:05:47.013Z,15.28
2022-11-05T15:10:48.414Z,15.21
2022-11-05T15:15:51.311Z,15.14
2022-11-05T15:20:56.841Z,15.15
2022-11-05T15:26:11.477Z,15.09
2022-11-05T15:31:12.433Z,15.06
2022-11-05T15:36:32.462Z,15.06
2022-11-05T15:41:33.863Z,14.99
2022-11-05T15:46:34.877Z,15.03
2022-11-05T15:51:36.352Z,15.03
2022-11-05T15:56:49.005Z,14.91
2022-11-05T16:02:00.392Z,14.81
2022-11-05T16:07:09.953Z,14.89
2022-11-05T16:12:18.066Z,14.98
2022-11-05T16:17:23.314Z,14.98
2022-11-05T16:22:25.062Z,14.84
2022-11-05T16:27:26.414Z,14.81
2022-11-05T16:32:31.095Z,14.78
2022-11-05T16:37:40.885Z,14.78
2022-11-05T16:42:42.586Z,14.94
2022-11-05T16:47:45.366Z,14.99
2022-11-05T16:52:46.960Z,15.09
2022-11-05T16:57:54.692Z,15.11
2022-11-05T17:02:56.110Z,15.06
2022-11-05T17:07:57.776Z,15.03
2022-11-05T17:12:58.870Z,14.95
2022-11-05T17:18:04.915Z,14.89
2022-11-05T17:23:07.339Z,14.79
2022-11-05T17:28:10.319Z,14.80
2022-11-05T17:33:12.078Z,14.86
2022-11-05T17:38:15.681Z,14.81
2022-11-05T17:43:17.632Z,14.77
2022-11-05T17:48:20.364Z,14.74
2022-11-05T17:53:21.600Z,14.67
2022-11-05T17:58:22.659Z,14.64
2022-11-05T18:03:24.023Z,14.59
2022-11-05T18:08:26.577Z,14.54
2022-11-05T18:13:27.530Z,14.54
2022-11-05T18:18:28.812Z,14.46
2022-11-05T18:23:29.843Z,14.37
2022-11-05T18:28:34.292Z,14.36
2022-11-05T18:33:35.293Z,14.29
2022-11-05T18:38:36.602Z,14.30
2022-11-05T18:43:37.623Z,14.31
2022-11-05T18:48:38.636Z,14.24
2022-11-05T18:53:39.920Z,14.38
2022-11-05T18:58:41.890Z,14.43
2022-11-05T19:03:43.159Z,14.49
2022-11-05T19:08:44.668Z,14.46
2022-11-05T19:13:46.576Z,14.40
2022-11-05T19:18:48.835Z,14.43
2022-11-05T19:23:51.204Z,14.42
2022-11-05T19:28:52.203Z,14.44
2022-11-05T19:33:53.811Z,14.40
2022-11-05T19:38:57.136Z,14.35
2022-11-05T19:44:00.974Z,14.33
2022-11-05T19:49:02.477Z,14.35
2022-11-05T19:54:04.873Z,14.36
2022-11-05T19:59:06.312Z,14.32
2022-11-05T20:04:11.064Z,14.33
2022-11-05T20:09:22.157Z,14.33
2022-11-05T20:14:25.300Z,14.36
2022-11-05T20:19:28.373Z,14.47
2022-11-05T20:24:29.534Z,14.52
2022-11-05T20:29:35.245Z,14.55
2022-11-05T20:34:37.905Z,14.54
2022-11-05T20:39:38.919Z,14.49
2022-11-05T20:44:40.209Z,14.51
2022-11-05T20:49:41.111Z,14.42
2022-11-05T20:54:42.453Z,14.36
2022-11-05T20:59:43.489Z,14.40
2022-11-05T21:04:45.101Z,14.45
2022-11-05T21:09:46.868Z,14.44
2022-11-05T21:14:48.913Z,14.45
2022-11-05T21:19:52.567Z,14.39
2022-11-05T21:24:53.663Z,14.27
2022-11-05T21:29:54.949Z,14.18
2022-11-05T21:34:55.914Z,14.13
2022-11-05T21:39:56.915Z,14.10
2022-11-05T21:45:00.606Z,14.06
2022-11-05T21:50:02.247Z,13.98
2022-11-05T21:55:22.385Z,13.94
2022-11-05T22:00:23.593Z,13.91
2022-11-05T22:05:26.290Z,13.86
2022-11-05T22:10:27.760Z,13.78
2022-11-05T22:15:28.810Z,13.66
2022-11-05T22:20:30.027Z,13.62
2022-11-05T22:25:30.995Z,13.62
2022-11-05T22:30:33.989Z,13.64
2022-11-05T22:35:38.589Z,13.68
2022-11-05T22:40:39.624Z,13.63
2022-11-05T22:45:40.649Z,13.48
2022-11-05T22:50:42.123Z,13.33
2022-11-05T22:55:43.131Z,13.33
2022-11-05T23:00:44.034Z,13.31
2022-11-05T23:05:45.151Z,13.27
2022-11-05T23:11:04.908Z,13.23
2022-11-05T23:16:26.912Z,13.15
2022-11-05T23:21:46.907Z,13.10
2022-11-05T23:26:50.747Z,12.99
2022-11-05T23:32:11.135Z,12.94
2022-11-05T23:37:30.681Z,12.91
2022-11-05T23:42:50.374Z,12.87
2022-11-05T23:48:10.827Z,12.76
2022-11-05T23:53:12.312Z,12.68
2022-11-05T23:58:14.580Z,12.60
